sensor_id;sensor_type;location;lat;lon;timestamp;pressure;altitude;pressure_sealevel;temperature;humidity
63395;BME280;49531;-34.520;150.798;2023-11-21T00:00:43;101096.94;;;23.99;60.89
63395;BME280;49531;-34.520;150.798;2023-11-21T00:03:12;101093.09;;;24.00;60.71
63395;BME280;49531;-34.520;150.798;2023-11-21T00:05:42;101082.72;;;24.02;61.02
63395;BME280;49531;-34.520;150.798;2023-11-21T00:08:10;101082.72;;;24.02;60.68
63395;BME280;49531;-34.520;150.798;2023-11-21T00:10:38;101078.06;;;24.02;60.64
63395;BME280;49531;-34.520;150.798;2023-11-21T00:13:08;101082.44;;;24.08;60.91
63395;BME280;49531;-34.520;150.798;2023-11-21T00:15:35;101073.97;;;24.10;60.88
63395;BME280;49531;-34.520;150.798;2023-11-21T00:18:05;101082.97;;;24.15;61.13
63395;BME280;49531;-34.520;150.798;2023-11-21T00:20:32;101077.78;;;24.19;61.06
63395;BME280;49531;-34.520;150.798;2023-11-21T00:23:01;101066.59;;;24.15;60.83
63395;BME280;49531;-34.520;150.798;2023-11-21T00:25:34;101063.59;;;24.17;61.05
63395;BME280;49531;-34.520;150.798;2023-11-21T00:28:01;101060.84;;;24.22;60.82
63395;BME280;49531;-34.520;150.798;2023-11-21T00:30:28;101065.78;;;24.25;60.79
63395;BME280;49531;-34.520;150.798;2023-11-21T00:32:57;101062.22;;;24.24;60.86
63395;BME280;49531;-34.520;150.798;2023-11-21T00:35:24;101058.13;;;24.27;60.87
63395;BME280;49531;-34.520;150.798;2023-11-21T00:37:51;101051.03;;;24.26;60.67
63395;BME280;49531;-34.520;150.798;2023-11-21T00:40:18;101054.03;;;24.35;60.64
63395;BME280;49531;-34.520;150.798;2023-11-21T00:42:47;101045.03;;;24.34;60.63
63395;BME280;49531;-34.520;150.798;2023-11-21T00:45:15;101053.69;;;24.41;60.50
63395;BME280;49531;-34.520;150.798;2023-11-21T00:47:42;101044.97;;;24.39;60.66
63395;BME280;49531;-34.520;150.798;2023-11-21T00:50:09;101041.66;;;24.47;60.61
63395;BME280;49531;-34.520;150.798;2023-11-21T00:52:36;101037.31;;;24.46;60.78
63395;BME280;49531;-34.520;150.798;2023-11-21T00:55:08;101031.84;;;24.46;61.24
63395;BME280;49531;-34.520;150.798;2023-11-21T00:57:35;101035.66;;;24.50;60.96
63395;BME280;49531;-34.520;150.798;2023-11-21T01:00:06;101023.63;;;24.51;60.48
63395;BME280;49531;-34.520;150.798;2023-11-21T01:02:39;101025.25;;;24.57;60.48
63395;BME280;49531;-34.520;150.798;2023-11-21T01:05:07;101011.28;;;24.64;59.91
63395;BME280;49531;-34.520;150.798;2023-11-21T01:07:34;101015.81;;;24.84;59.22
63395;BME280;49531;-34.520;150.798;2023-11-21T01:10:03;101019.59;;;24.98;59.49
63395;BME280;49531;-34.520;150.798;2023-11-21T01:12:37;101009.97;;;25.06;59.47
63395;BME280;49531;-34.520;150.798;2023-11-21T01:15:05;100997.13;;;25.06;59.49
63395;BME280;49531;-34.520;150.798;2023-11-21T01:17:53;101003.13;;;25.08;59.32
63395;BME280;49531;-34.520;150.798;2023-11-21T01:20:33;101003.13;;;25.08;59.29
63395;BME280;49531;-34.520;150.798;2023-11-21T01:23:06;101003.06;;;25.18;59.17
63395;BME280;49531;-34.520;150.798;2023-11-21T01:25:33;100992.25;;;25.32;58.39
63395;BME280;49531;-34.520;150.798;2023-11-21T01:28:00;100987.00;;;25.41;57.50
63395;BME280;49531;-34.520;150.798;2023-11-21T01:30:28;100995.16;;;25.46;57.94
63395;BME280;49531;-34.520;150.798;2023-11-21T01:32:55;100995.41;;;25.49;57.36
63395;BME280;49531;-34.520;150.798;2023-11-21T01:35:23;100995.69;;;25.48;57.76
63395;BME280;49531;-34.520;150.798;2023-11-21T01:37:50;100996.25;;;25.45;57.52
63395;BME280;49531;-34.520;150.798;2023-11-21T01:40:18;100990.88;;;25.35;57.87
63395;BME280;49531;-34.520;150.798;2023-11-21T01:42:45;100984.66;;;25.24;58.09
63395;BME280;49531;-34.520;150.798;2023-11-21T01:45:13;100986.66;;;25.18;58.06
63395;BME280;49531;-34.520;150.798;2023-11-21T01:47:42;100988.00;;;25.50;57.49
63395;BME280;49531;-34.520;150.798;2023-11-21T01:50:15;100978.28;;;25.68;57.42
63395;BME280;49531;-34.520;150.798;2023-11-21T01:53:00;100980.22;;;25.62;57.91
63395;BME280;49531;-34.520;150.798;2023-11-21T01:58:40;100964.47;;;25.54;57.68
63395;BME280;49531;-34.520;150.798;2023-11-21T02:01:48;100955.47;;;25.48;57.91
63395;BME280;49531;-34.520;150.798;2023-11-21T02:04:50;100968.59;;;25.51;58.11
63395;BME280;49531;-34.520;150.798;2023-11-21T02:16:21;100969.09;;;25.53;58.31
63395;BME280;49531;-34.520;150.798;2023-11-21T02:18:59;100961.47;;;25.50;58.19
63395;BME280;49531;-34.520;150.798;2023-11-21T02:22:10;100958.47;;;25.52;58.31
63395;BME280;49531;-34.520;150.798;2023-11-21T02:24:45;100959.81;;;25.54;58.54
63395;BME280;49531;-34.520;150.798;2023-11-21T02:27:17;100957.31;;;25.58;58.65
63395;BME280;49531;-34.520;150.798;2023-11-21T02:30:06;100954.03;;;25.56;58.28
63395;BME280;49531;-34.520;150.798;2023-11-21T02:32:59;100966.81;;;25.60;58.65
63395;BME280;49531;-34.520;150.798;2023-11-21T02:35:51;100961.69;;;25.59;58.42
63395;BME280;49531;-34.520;150.798;2023-11-21T02:38:30;100957.34;;;25.53;58.51
63395;BME280;49531;-34.520;150.798;2023-11-21T02:41:26;100950.88;;;25.44;58.77
63395;BME280;49531;-34.520;150.798;2023-11-21T02:44:16;100956.81;;;25.51;58.56
63395;BME280;49531;-34.520;150.798;2023-11-21T02:49:52;100962.78;;;25.58;58.56
63395;BME280;49531;-34.520;150.798;2023-11-21T02:52:35;100953.16;;;25.60;58.23
63395;BME280;49531;-34.520;150.798;2023-11-21T02:58:32;100958.06;;;25.64;59.32
63395;BME280;49531;-34.520;150.798;2023-11-21T03:01:06;100955.34;;;25.64;58.90
63395;BME280;49531;-34.520;150.798;2023-11-21T03:03:49;100947.13;;;25.64;59.53
63395;BME280;49531;-34.520;150.798;2023-11-21T03:06:36;100948.72;;;25.70;59.39
63395;BME280;49531;-34.520;150.798;2023-11-21T03:09:09;100955.28;;;25.69;59.71
63395;BME280;49531;-34.520;150.798;2023-11-21T03:15:08;100943.03;;;25.61;59.50
63395;BME280;49531;-34.520;150.798;2023-11-21T03:18:08;100946.03;;;25.65;59.53
63395;BME280;49531;-34.520;150.798;2023-11-21T03:21:04;100948.72;;;25.70;59.62
63395;BME280;49531;-34.520;150.798;2023-11-21T03:23:55;100945.09;;;25.74;59.54
63395;BME280;49531;-34.520;150.798;2023-11-21T03:26:29;100936.38;;;25.72;59.24
63395;BME280;49531;-34.520;150.798;2023-11-21T03:29:04;100939.63;;;25.74;59.22
63395;BME280;49531;-34.520;150.798;2023-11-21T03:31:42;100931.47;;;25.69;59.39
63395;BME280;49531;-34.520;150.798;2023-11-21T03:35:00;100925.28;;;25.58;59.60
63395;BME280;49531;-34.520;150.798;2023-11-21T03:37:36;100923.31;;;25.64;59.22
63395;BME280;49531;-34.520;150.798;2023-11-21T03:40:29;100915.06;;;25.69;59.25
63395;BME280;49531;-34.520;150.798;2023-11-21T03:45:56;100914.25;;;25.69;58.41
63395;BME280;49531;-34.520;150.798;2023-11-21T03:52:07;100908.16;;;25.48;58.52
63395;BME280;49531;-34.520;150.798;2023-11-21T03:54:45;100909.31;;;25.42;58.88
63395;BME280;49531;-34.520;150.798;2023-11-21T03:57:25;100906.91;;;25.35;58.83
63395;BME280;49531;-34.520;150.798;2023-11-21T04:06:14;100897.53;;;25.17;58.87
63395;BME280;49531;-34.520;150.798;2023-11-21T04:08:51;100894.56;;;25.14;58.79
63395;BME280;49531;-34.520;150.798;2023-11-21T04:11:22;100893.75;;;25.13;59.18
63395;BME280;49531;-34.520;150.798;2023-11-21T04:13:52;100882.84;;;25.08;59.16
63395;BME280;49531;-34.520;150.798;2023-11-21T04:16:44;100889.38;;;25.12;59.38
63395;BME280;49531;-34.520;150.798;2023-11-21T04:19:19;100876.63;;;25.03;59.04
63395;BME280;49531;-34.520;150.798;2023-11-21T04:22:08;100872.50;;;25.05;59.01
63395;BME280;49531;-34.520;150.798;2023-11-21T04:24:56;100869.56;;;24.97;59.31
63395;BME280;49531;-34.520;150.798;2023-11-21T04:27:29;100868.09;;;25.09;59.34
63395;BME280;49531;-34.520;150.798;2023-11-21T04:29:59;100858.22;;;25.13;58.99
63395;BME280;49531;-34.520;150.798;2023-11-21T04:32:26;100864.78;;;25.12;59.07
63395;BME280;49531;-34.520;150.798;2023-11-21T04:34:53;100860.50;;;25.01;59.36
63395;BME280;49531;-34.520;150.798;2023-11-21T04:37:20;100866.25;;;24.94;59.72
63395;BME280;49531;-34.520;150.798;2023-11-21T04:39:47;100875.03;;;24.97;59.82
63395;BME280;49531;-34.520;150.798;2023-11-21T04:42:17;100859.34;;;25.07;59.79
63395;BME280;49531;-34.520;150.798;2023-11-21T04:44:44;100843.78;;;25.08;59.20
63395;BME280;49531;-34.520;150.798;2023-11-21T04:47:19;100850.00;;;25.13;58.92
63395;BME280;49531;-34.520;150.798;2023-11-21T04:49:46;100844.88;;;25.07;59.28
63395;BME280;49531;-34.520;150.798;2023-11-21T04:52:17;100833.66;;;25.08;58.29
63395;BME280;49531;-34.520;150.798;2023-11-21T04:54:44;100836.38;;;25.08;58.19
63395;BME280;49531;-34.520;150.798;2023-11-21T04:57:11;100826.03;;;25.05;58.07
63395;BME280;49531;-34.520;150.798;2023-11-21T04:59:38;100826.28;;;25.09;58.00
63395;BME280;49531;-34.520;150.798;2023-11-21T05:02:09;100818.34;;;25.07;58.24
63395;BME280;49531;-34.520;150.798;2023-11-21T05:04:36;100818.94;;;25.04;57.64
63395;BME280;49531;-34.520;150.798;2023-11-21T05:07:06;100823.34;;;25.00;57.78
63395;BME280;49531;-34.520;150.798;2023-11-21T05:09:33;100827.19;;;24.99;58.07
63395;BME280;49531;-34.520;150.798;2023-11-21T05:12:05;100829.28;;;25.07;57.83
63395;BME280;49531;-34.520;150.798;2023-11-21T05:14:32;100818.34;;;25.07;57.99
63395;BME280;49531;-34.520;150.798;2023-11-21T05:16:59;100804.34;;;25.14;57.44
63395;BME280;49531;-34.520;150.798;2023-11-21T05:19:30;100806.81;;;25.15;57.65
63395;BME280;49531;-34.520;150.798;2023-11-21T05:22:01;100803.78;;;25.17;57.87
63395;BME280;49531;-34.520;150.798;2023-11-21T05:24:40;100787.28;;;25.22;57.59
63395;BME280;49531;-34.520;150.798;2023-11-21T05:27:10;100782.94;;;25.21;57.43
63395;BME280;49531;-34.520;150.798;2023-11-21T05:29:40;100785.66;;;25.21;57.73
63395;BME280;49531;-34.520;150.798;2023-11-21T05:32:14;100784.34;;;25.18;57.65
63395;BME280;49531;-34.520;150.798;2023-11-21T05:34:46;100793.72;;;25.12;57.98
63395;BME280;49531;-34.520;150.798;2023-11-21T05:37:25;100786.91;;;25.10;57.92
63395;BME280;49531;-34.520;150.798;2023-11-21T05:40:31;100770.78;;;25.08;58.40
63395;BME280;49531;-34.520;150.798;2023-11-21T05:43:17;100770.84;;;25.03;58.70
63395;BME280;49531;-34.520;150.798;2023-11-21T05:45:48;100767.81;;;25.05;58.53
63395;BME280;49531;-34.520;150.798;2023-11-21T05:48:23;100773.81;;;25.07;58.61
63395;BME280;49531;-34.520;150.798;2023-11-21T05:50:57;100776.22;;;25.13;58.45
63395;BME280;49531;-34.520;150.798;2023-11-21T05:53:54;100764.47;;;25.13;58.05
63395;BME280;49531;-34.520;150.798;2023-11-21T05:56:26;100765.91;;;25.05;58.32
63395;BME280;49531;-34.520;150.798;2023-11-21T05:58:54;100759.00;;;25.13;57.68
63395;BME280;49531;-34.520;150.798;2023-11-21T06:01:23;100750.50;;;25.14;57.45
63395;BME280;49531;-34.520;150.798;2023-11-21T06:04:02;100758.63;;;25.19;57.67
63395;BME280;49531;-34.520;150.798;2023-11-21T06:06:32;100754.19;;;25.23;57.53
63395;BME280;49531;-34.520;150.798;2023-11-21T06:09:09;100752.81;;;25.26;57.74
63395;BME280;49531;-34.520;150.798;2023-11-21T06:11:45;100753.63;;;25.26;57.77
63395;BME280;49531;-34.520;150.798;2023-11-21T06:14:22;100742.91;;;25.30;57.52
63395;BME280;49531;-34.520;150.798;2023-11-21T06:17:12;100735.75;;;25.34;57.47
63395;BME280;49531;-34.520;150.798;2023-11-21T06:20:06;100728.06;;;25.36;57.42
63395;BME280;49531;-34.520;150.798;2023-11-21T06:23:15;100732.53;;;25.51;57.03
63395;BME280;49531;-34.520;150.798;2023-11-21T06:29:13;100725.41;;;25.74;56.99
63395;BME280;49531;-34.520;150.798;2023-11-21T06:31:46;100720.69;;;25.79;56.95
63395;BME280;49531;-34.520;150.798;2023-11-21T06:34:16;100724.75;;;25.82;56.81
63395;BME280;49531;-34.520;150.798;2023-11-21T06:37:09;100724.09;;;25.90;56.83
63395;BME280;49531;-34.520;150.798;2023-11-21T06:39:39;100736.06;;;25.94;57.02
63395;BME280;49531;-34.520;150.798;2023-11-21T06:42:09;100737.41;;;25.97;56.78
63395;BME280;49531;-34.520;150.798;2023-11-21T06:44:39;100747.13;;;26.03;56.83
63395;BME280;49531;-34.520;150.798;2023-11-21T06:47:07;100736.47;;;26.01;56.74
63395;BME280;49531;-34.520;150.798;2023-11-21T06:49:35;100734.25;;;26.03;56.53
63395;BME280;49531;-34.520;150.798;2023-11-21T06:52:02;100735.28;;;26.07;56.56
63395;BME280;49531;-34.520;150.798;2023-11-21T06:54:31;100732.25;;;26.09;56.67
63395;BME280;49531;-34.520;150.798;2023-11-21T06:56:59;100743.66;;;26.16;56.41
63395;BME280;49531;-34.520;150.798;2023-11-21T06:59:28;100752.97;;;26.15;56.42
63395;BME280;49531;-34.520;150.798;2023-11-21T07:01:55;100754.00;;;26.19;56.52
63395;BME280;49531;-34.520;150.798;2023-11-21T07:04:22;100766.06;;;26.18;56.39
63395;BME280;49531;-34.520;150.798;2023-11-21T07:06:50;100763.34;;;26.18;56.39
63395;BME280;49531;-34.520;150.798;2023-11-21T07:09:17;100770.44;;;26.19;56.21
63395;BME280;49531;-34.520;150.798;2023-11-21T07:11:51;100762.75;;;26.21;56.19
63395;BME280;49531;-34.520;150.798;2023-11-21T07:14:18;100763.56;;;26.21;56.32
63395;BME280;49531;-34.520;150.798;2023-11-21T07:16:46;100780.22;;;26.25;55.96
63395;BME280;49531;-34.520;150.798;2023-11-21T07:19:14;100790.34;;;26.24;56.32
63395;BME280;49531;-34.520;150.798;2023-11-21T07:21:41;100784.06;;;26.24;56.25
63395;BME280;49531;-34.520;150.798;2023-11-21T07:24:08;100788.19;;;26.21;56.06
63395;BME280;49531;-34.520;150.798;2023-11-21T07:26:37;100792.28;;;26.24;55.98
63395;BME280;49531;-34.520;150.798;2023-11-21T07:29:06;100794.56;;;26.17;56.25
63395;BME280;49531;-34.520;150.798;2023-11-21T07:31:33;100803.88;;;26.16;56.37
63395;BME280;49531;-34.520;150.798;2023-11-21T07:34:01;100812.63;;;26.18;56.30
63395;BME280;49531;-34.520;150.798;2023-11-21T07:36:28;100823.06;;;26.16;56.27
63395;BME280;49531;-34.520;150.798;2023-11-21T07:38:55;100831.56;;;26.14;55.98
63395;BME280;49531;-34.520;150.798;2023-11-21T07:41:22;100833.03;;;26.07;55.63
63395;BME280;49531;-34.520;150.798;2023-11-21T07:43:49;100846.13;;;26.10;56.16
63395;BME280;49531;-34.520;150.798;2023-11-21T07:46:16;100846.59;;;26.17;55.90
63395;BME280;49531;-34.520;150.798;2023-11-21T07:48:44;100864.06;;;26.21;55.61
63395;BME280;49531;-34.520;150.798;2023-11-21T07:51:12;100865.63;;;26.27;55.47
63395;BME280;49531;-34.520;150.798;2023-11-21T07:53:39;100867.25;;;26.28;55.61
63395;BME280;49531;-34.520;150.798;2023-11-21T07:56:08;100863.69;;;26.28;55.47
63395;BME280;49531;-34.520;150.798;2023-11-21T07:58:36;100884.84;;;26.22;55.42
63395;BME280;49531;-34.520;150.798;2023-11-21T08:01:03;100882.63;;;26.24;55.48
63395;BME280;49531;-34.520;150.798;2023-11-21T08:03:31;100882.63;;;26.24;55.45
63395;BME280;49531;-34.520;150.798;2023-11-21T08:05:58;100885.91;;;26.26;55.38
63395;BME280;49531;-34.520;150.798;2023-11-21T08:08:26;100897.66;;;26.27;55.19
63395;BME280;49531;-34.520;150.798;2023-11-21T08:10:53;100895.75;;;26.27;55.17
63395;BME280;49531;-34.520;150.798;2023-11-21T08:13:27;100884.34;;;26.20;55.26
63395;BME280;49531;-34.520;150.798;2023-11-21T08:15:56;100905.66;;;26.23;55.39
63395;BME280;49531;-34.520;150.798;2023-11-21T08:18:24;100906.81;;;26.17;55.10
63395;BME280;49531;-34.520;150.798;2023-11-21T08:20:51;100916.44;;;26.14;55.23
63395;BME280;49531;-34.520;150.798;2023-11-21T08:23:18;100924.13;;;26.12;55.74
63395;BME280;49531;-34.520;150.798;2023-11-21T08:25:46;100924.41;;;26.11;55.41
63395;BME280;49531;-34.520;150.798;2023-11-21T08:28:13;100923.59;;;26.10;55.43
63395;BME280;49531;-34.520;150.798;2023-11-21T08:30:40;100925.53;;;26.10;55.60
63395;BME280;49531;-34.520;150.798;2023-11-21T08:33:09;100918.06;;;26.15;55.26
63395;BME280;49531;-34.520;150.798;2023-11-21T08:35:37;100927.09;;;26.16;55.10
63395;BME280;49531;-34.520;150.798;2023-11-21T08:38:04;100929.03;;;26.15;55.16
63395;BME280;49531;-34.520;150.798;2023-11-21T08:40:32;100921.91;;;26.14;55.05
63395;BME280;49531;-34.520;150.798;2023-11-21T08:43:00;100928.78;;;26.12;55.22
63395;BME280;49531;-34.520;150.798;2023-11-21T08:45:27;100934.56;;;26.10;55.37
63395;BME280;49531;-34.520;150.798;2023-11-21T08:47:54;100930.47;;;26.08;55.25
63395;BME280;49531;-34.520;150.798;2023-11-21T08:50:21;100941.72;;;26.06;55.22
63395;BME280;49531;-34.520;150.798;2023-11-21T08:52:48;100937.66;;;26.04;55.15
63395;BME280;49531;-34.520;150.798;2023-11-21T08:55:15;100925.66;;;26.00;55.39
63395;BME280;49531;-34.520;150.798;2023-11-21T08:57:44;100938.75;;;26.03;55.13
63395;BME280;49531;-34.520;150.798;2023-11-21T09:00:13;100934.38;;;26.02;55.21
63395;BME280;49531;-34.520;150.798;2023-11-21T09:02:44;100932.75;;;26.01;55.38
63395;BME280;49531;-34.520;150.798;2023-11-21T09:05:12;100937.22;;;25.97;54.94
63395;BME280;49531;-34.520;150.798;2023-11-21T09:07:41;100949.19;;;26.01;54.89
63395;BME280;49531;-34.520;150.798;2023-11-21T09:10:09;100951.41;;;25.99;54.90
63395;BME280;49531;-34.520;150.798;2023-11-21T09:12:37;100951.72;;;25.97;55.24
63395;BME280;49531;-34.520;150.798;2023-11-21T09:15:08;100946.59;;;25.90;54.90
63395;BME280;49531;-34.520;150.798;2023-11-21T09:17:36;100949.56;;;25.94;54.93
63395;BME280;49531;-34.520;150.798;2023-11-21T09:20:05;100944.66;;;25.91;54.95
63395;BME280;49531;-34.520;150.798;2023-11-21T09:22:36;100942.28;;;25.84;54.88
63395;BME280;49531;-34.520;150.798;2023-11-21T09:25:05;100952.09;;;25.85;55.17
63395;BME280;49531;-34.520;150.798;2023-11-21T09:27:34;100959.22;;;25.86;55.02
63395;BME280;49531;-34.520;150.798;2023-11-21T09:30:27;100965.03;;;25.80;55.11
63395;BME280;49531;-34.520;150.798;2023-11-21T09:32:54;100974.63;;;25.77;55.08
63395;BME280;49531;-34.520;150.798;2023-11-21T09:35:44;100974.09;;;25.75;54.90
63395;BME280;49531;-34.520;150.798;2023-11-21T09:38:12;100963.50;;;25.69;55.30
63395;BME280;49531;-34.520;150.798;2023-11-21T09:40:42;100973.06;;;25.71;55.27
63395;BME280;49531;-34.520;150.798;2023-11-21T09:43:17;100970.06;;;25.68;55.45
63395;BME280;49531;-34.520;150.798;2023-11-21T09:45:46;100985.34;;;25.74;55.41
63395;BME280;49531;-34.520;150.798;2023-11-21T09:48:15;100982.88;;;25.72;55.08
63395;BME280;49531;-34.520;150.798;2023-11-21T09:50:44;100998.78;;;25.70;55.21
63395;BME280;49531;-34.520;150.798;2023-11-21T09:53:20;101020.44;;;25.67;55.23
63395;BME280;49531;-34.520;150.798;2023-11-21T09:55:52;101022.63;;;25.65;55.40
63395;BME280;49531;-34.520;150.798;2023-11-21T09:58:22;101020.44;;;25.67;55.34
63395;BME280;49531;-34.520;150.798;2023-11-21T10:00:55;101016.88;;;25.66;55.15
63395;BME280;49531;-34.520;150.798;2023-11-21T10:03:26;101017.16;;;25.65;55.34
63395;BME280;49531;-34.520;150.798;2023-11-21T10:05:54;101024.00;;;25.62;55.38
63395;BME280;49531;-34.520;150.798;2023-11-21T10:08:27;101010.38;;;25.57;55.43
63395;BME280;49531;-34.520;150.798;2023-11-21T10:10:58;101008.19;;;25.59;55.11
63395;BME280;49531;-34.520;150.798;2023-11-21T10:13:27;101033.09;;;25.57;55.20
63395;BME280;49531;-34.520;150.798;2023-11-21T10:15:57;101045.16;;;25.51;55.30
63395;BME280;49531;-34.520;150.798;2023-11-21T10:18:25;101049.28;;;25.49;55.63
63395;BME280;49531;-34.520;150.798;2023-11-21T10:20:54;101047.13;;;25.46;55.34
63395;BME280;49531;-34.520;150.798;2023-11-21T10:23:23;101062.72;;;25.45;55.65
63395;BME280;49531;-34.520;150.798;2023-11-21T10:25:52;101072.56;;;25.46;55.46
63395;BME280;49531;-34.520;150.798;2023-11-21T10:28:19;101075.56;;;25.45;55.82
63395;BME280;49531;-34.520;150.798;2023-11-21T10:30:47;101079.69;;;25.42;55.38
63395;BME280;49531;-34.520;150.798;2023-11-21T10:33:14;101068.78;;;25.37;55.48
63395;BME280;49531;-34.520;150.798;2023-11-21T10:35:45;101064.19;;;25.33;55.68
63395;BME280;49531;-34.520;150.798;2023-11-21T10:38:21;101078.38;;;25.35;55.56
63395;BME280;49531;-34.520;150.798;2023-11-21T10:40:51;101071.56;;;25.32;55.88
63395;BME280;49531;-34.520;150.798;2023-11-21T10:43:18;101081.41;;;25.33;55.59
63395;BME280;49531;-34.520;150.798;2023-11-21T10:45:46;101082.78;;;25.31;55.66
63395;BME280;49531;-34.520;150.798;2023-11-21T10:48:14;101081.97;;;25.30;55.72
63395;BME280;49531;-34.520;150.798;2023-11-21T10:50:42;101095.34;;;25.32;55.35
63395;BME280;49531;-34.520;150.798;2023-11-21T10:53:10;101095.34;;;25.32;55.82
63395;BME280;49531;-34.520;150.798;2023-11-21T10:55:39;101078.97;;;25.26;55.76
63395;BME280;49531;-34.520;150.798;2023-11-21T10:58:06;101091.84;;;25.26;55.53
63395;BME280;49531;-34.520;150.798;2023-11-21T11:00:37;101092.13;;;25.24;55.58
63395;BME280;49531;-34.520;150.798;2023-11-21T11:03:07;101104.13;;;25.29;55.84
63395;BME280;49531;-34.520;150.798;2023-11-21T11:05:41;101097.03;;;25.27;55.52
63395;BME280;49531;-34.520;150.798;2023-11-21T11:08:19;101099.75;;;25.27;55.76
63395;BME280;49531;-34.520;150.798;2023-11-21T11:10:52;101099.50;;;25.24;55.83
63395;BME280;49531;-34.520;150.798;2023-11-21T11:13:20;101106.88;;;25.23;55.81
63395;BME280;49531;-34.520;150.798;2023-11-21T11:15:48;101100.88;;;25.21;55.80
63395;BME280;49531;-34.520;150.798;2023-11-21T11:18:16;101097.66;;;25.14;55.65
63395;BME280;49531;-34.520;150.798;2023-11-21T11:20:46;101095.75;;;25.15;55.97
63395;BME280;49531;-34.520;150.798;2023-11-21T11:23:31;101091.38;;;25.14;55.71
63395;BME280;49531;-34.520;150.798;2023-11-21T11:29:12;101071.44;;;25.13;55.65
63395;BME280;49531;-34.520;150.798;2023-11-21T11:34:32;101075.25;;;25.12;55.53
63395;BME280;49531;-34.520;150.798;2023-11-21T11:37:05;101063.28;;;25.03;55.72
63395;BME280;49531;-34.520;150.798;2023-11-21T11:39:41;101051.78;;;25.06;55.80
63395;BME280;49531;-34.520;150.798;2023-11-21T11:42:18;101039.50;;;25.04;55.80
63395;BME280;49531;-34.520;150.798;2023-11-21T11:44:47;101032.16;;;24.99;55.61
63395;BME280;49531;-34.520;150.798;2023-11-21T11:47:31;101021.22;;;24.99;55.69
63395;BME280;49531;-34.520;150.798;2023-11-21T11:50:11;101014.13;;;24.93;55.72
63395;BME280;49531;-34.520;150.798;2023-11-21T11:52:53;101028.59;;;24.93;56.02
63395;BME280;49531;-34.520;150.798;2023-11-21T11:55:23;101031.59;;;24.92;56.00
63395;BME280;49531;-34.520;150.798;2023-11-21T11:57:52;101037.91;;;24.92;55.71
63395;BME280;49531;-34.520;150.798;2023-11-21T12:00:44;101042.53;;;24.92;55.70
63395;BME280;49531;-34.520;150.798;2023-11-21T12:03:11;101037.63;;;24.89;55.79
63395;BME280;49531;-34.520;150.798;2023-11-21T12:05:40;101036.00;;;24.88;55.98
63395;BME280;49531;-34.520;150.798;2023-11-21T12:08:11;101032.72;;;24.86;56.12
63395;BME280;49531;-34.520;150.798;2023-11-21T12:10:39;101045.31;;;24.87;55.75
63395;BME280;49531;-34.520;150.798;2023-11-21T12:13:08;101038.75;;;24.83;56.11
63395;BME280;49531;-34.520;150.798;2023-11-21T12:15:39;101037.66;;;24.84;55.86
63395;BME280;49531;-34.520;150.798;2023-11-21T12:18:08;101022.94;;;24.80;55.77
63395;BME280;49531;-34.520;150.798;2023-11-21T12:20:35;101019.38;;;24.79;56.06
63395;BME280;49531;-34.520;150.798;2023-11-21T12:23:09;101013.13;;;24.79;55.90
63395;BME280;49531;-34.520;150.798;2023-11-21T12:25:37;101013.13;;;24.79;55.99
63395;BME280;49531;-34.520;150.798;2023-11-21T12:28:05;101020.78;;;24.77;56.00
63395;BME280;49531;-34.520;150.798;2023-11-21T12:30:35;101016.97;;;24.73;55.87
63395;BME280;49531;-34.520;150.798;2023-11-21T12:33:04;101026.28;;;24.72;55.97
63395;BME280;49531;-34.520;150.798;2023-11-21T12:35:34;101032.28;;;24.74;56.09
63395;BME280;49531;-34.520;150.798;2023-11-21T12:38:03;101031.75;;;24.72;56.02
63395;BME280;49531;-34.520;150.798;2023-11-21T12:40:31;101027.66;;;24.69;55.98
63395;BME280;49531;-34.520;150.798;2023-11-21T12:42:59;101034.50;;;24.67;56.15
63395;BME280;49531;-34.520;150.798;2023-11-21T12:45:28;101033.69;;;24.66;55.98
63395;BME280;49531;-34.520;150.798;2023-11-21T12:48:03;101041.06;;;24.66;55.89
63395;BME280;49531;-34.520;150.798;2023-11-21T12:50:35;101036.16;;;24.63;55.89
63395;BME280;49531;-34.520;150.798;2023-11-21T12:53:04;101035.06;;;24.64;55.95
63395;BME280;49531;-34.520;150.798;2023-11-21T12:55:32;101030.16;;;24.60;56.27
63395;BME280;49531;-34.520;150.798;2023-11-21T12:58:05;101022.22;;;24.59;56.06
63395;BME280;49531;-34.520;150.798;2023-11-21T13:00:38;101018.16;;;24.56;56.20
63395;BME280;49531;-34.520;150.798;2023-11-21T13:03:07;101015.41;;;24.56;55.94
63395;BME280;49531;-34.520;150.798;2023-11-21T13:05:37;101008.84;;;24.57;55.97
63395;BME280;49531;-34.520;150.798;2023-11-21T13:08:07;101011.06;;;24.55;56.16
63395;BME280;49531;-34.520;150.798;2023-11-21T13:10:35;101015.16;;;24.53;55.91
63395;BME280;49531;-34.520;150.798;2023-11-21T13:13:05;101011.59;;;24.52;56.00
63395;BME280;49531;-34.520;150.798;2023-11-21T13:15:56;100998.25;;;24.46;56.22
63395;BME280;49531;-34.520;150.798;2023-11-21T13:18:23;100998.50;;;24.49;55.96
63395;BME280;49531;-34.520;150.798;2023-11-21T13:20:50;101013.25;;;24.53;56.23
63395;BME280;49531;-34.520;150.798;2023-11-21T13:23:19;101013.81;;;24.50;56.02
63395;BME280;49531;-34.520;150.798;2023-11-21T13:25:46;101000.16;;;24.45;55.86
63395;BME280;49531;-34.520;150.798;2023-11-21T13:28:15;101017.63;;;24.49;56.11
63395;BME280;49531;-34.520;150.798;2023-11-21T13:30:44;101020.63;;;24.48;56.05